sensor_id;sensor_type;location;lat;lon;timestamp;temperature;humidity
20057;DHT22;10189;49.546;7.906;2022-09-29T00:00:36;4.80;99.90
20057;DHT22;10189;49.546;7.906;2022-09-29T00:03:03;4.80;99.90
20057;DHT22;10189;49.546;7.906;2022-09-29T00:05:29;4.70;99.90
20057;DHT22;10189;49.546;7.906;2022-09-29T00:07:56;4.60;99.90
20057;DHT22;10189;49.546;7.906;2022-09-29T00:10:22;4.60;99.90
20057;DHT22;10189;49.546;7.906;2022-09-29T00:12:48;4.50;99.90
20057;DHT22;10189;49.546;7.906;2022-09-29T00:15:15;4.40;99.90
20057;DHT22;10189;49.546;7.906;2022-09-29T00:17:41;4.40;99.90
20057;DHT22;10189;49.546;7.906;2022-09-29T00:20:07;4.30;99.90
20057;DHT22;10189;49.546;7.906;2022-09-29T00:22:34;4.20;99.90
20057;DHT22;10189;49.546;7.906;2022-09-29T00:24:59;4.20;99.90
20057;DHT22;10189;49.546;7.906;2022-09-29T00:27:25;4.10;99.90
20057;DHT22;10189;49.546;7.906;2022-09-29T00:29:51;4.00;99.90
20057;DHT22;10189;49.546;7.906;2022-09-29T00:32:17;4.00;99.90
20057;DHT22;10189;49.546;7.906;2022-09-29T00:34:43;4.00;99.90
20057;DHT22;10189;49.546;7.906;2022-09-29T00:37:09;4.00;99.90
20057;DHT22;10189;49.546;7.906;2022-09-29T00:39:35;4.00;99.90
20057;DHT22;10189;49.546;7.906;2022-09-29T00:42:01;3.90;99.90
20057;DHT22;10189;49.546;7.906;2022-09-29T00:47:50;3.90;99.90
20057;DHT22;10189;49.546;7.906;2022-09-29T00:50:31;3.80;99.90
20057;DHT22;10189;49.546;7.906;2022-09-29T00:53:05;3.80;99.90
20057;DHT22;10189;49.546;7.906;2022-09-29T00:56:07;3.70;99.90
20057;DHT22;10189;49.546;7.906;2022-09-29T00:58:42;3.60;99.90
20057;DHT22;10189;49.546;7.906;2022-09-29T01:01:25;3.60;99.90
20057;DHT22;10189;49.546;7.906;2022-09-29T01:04:15;3.50;99.90
20057;DHT22;10189;49.546;7.906;2022-09-29T01:06:53;3.50;99.90
20057;DHT22;10189;49.546;7.906;2022-09-29T01:09:34;3.40;99.90
20057;DHT22;10189;49.546;7.906;2022-09-29T01:12:02;3.40;99.90
20057;DHT22;10189;49.546;7.906;2022-09-29T01:14:30;3.30;99.90
20057;DHT22;10189;49.546;7.906;2022-09-29T01:16:58;3.30;99.90
20057;DHT22;10189;49.546;7.906;2022-09-29T01:20:00;3.20;99.90
20057;DHT22;10189;49.546;7.906;2022-09-29T01:30:40;3.00;99.90
20057;DHT22;10189;49.546;7.906;2022-09-29T01:39:42;2.90;99.90
20057;DHT22;10189;49.546;7.906;2022-09-29T01:42:33;2.80;99.90
20057;DHT22;10189;49.546;7.906;2022-09-29T01:45:14;2.70;99.90
20057;DHT22;10189;49.546;7.906;2022-09-29T01:47:46;2.70;99.90
20057;DHT22;10189;49.546;7.906;2022-09-29T01:50:21;2.70;99.90
20057;DHT22;10189;49.546;7.906;2022-09-29T01:52:57;2.70;99.90
20057;DHT22;10189;49.546;7.906;2022-09-29T01:55:30;2.70;99.90
20057;DHT22;10189;49.546;7.906;2022-09-29T01:58:02;2.70;99.90
20057;DHT22;10189;49.546;7.906;2022-09-29T02:00:38;2.70;99.90
20057;DHT22;10189;49.546;7.906;2022-09-29T02:03:16;2.70;99.90
20057;DHT22;10189;49.546;7.906;2022-09-29T02:05:52;2.70;99.90
20057;DHT22;10189;49.546;7.906;2022-09-29T02:08:29;2.70;99.90
20057;DHT22;10189;49.546;7.906;2022-09-29T02:11:07;2.60;99.90
20057;DHT22;10189;49.546;7.906;2022-09-29T02:14:01;2.60;99.90
20057;DHT22;10189;49.546;7.906;2022-09-29T02:16:37;2.60;99.90
20057;DHT22;10189;49.546;7.906;2022-09-29T02:19:12;2.60;99.90
20057;DHT22;10189;49.546;7.906;2022-09-29T02:21:51;2.50;99.90
20057;DHT22;10189;49.546;7.906;2022-09-29T02:24:22;2.50;99.90
20057;DHT22;10189;49.546;7.906;2022-09-29T02:26:50;2.50;99.90
20057;DHT22;10189;49.546;7.906;2022-09-29T02:29:17;2.50;99.90
20057;DHT22;10189;49.546;7.906;2022-09-29T02:31:44;2.50;99.90
20057;DHT22;10189;49.546;7.906;2022-09-29T02:34:14;2.50;99.90
20057;DHT22;10189;49.546;7.906;2022-09-29T02:57:19;2.70;99.90
20057;DHT22;10189;49.546;7.906;2022-09-29T02:59:58;2.80;99.90
20057;DHT22;10189;49.546;7.906;2022-09-29T03:02:36;2.80;99.90
20057;DHT22;10189;49.546;7.906;2022-09-29T03:05:05;2.90;99.90
20057;DHT22;10189;49.546;7.906;2022-09-29T03:07:38;2.90;99.90
20057;DHT22;10189;49.546;7.906;2022-09-29T03:10:06;2.90;99.90
20057;DHT22;10189;49.546;7.906;2022-09-29T03:12:34;2.80;99.90
20057;DHT22;10189;49.546;7.906;2022-09-29T03:15:00;2.80;99.90
20057;DHT22;10189;49.546;7.906;2022-09-29T03:17:27;2.80;99.90
20057;DHT22;10189;49.546;7.906;2022-09-29T03:19:53;2.70;99.90
20057;DHT22;10189;49.546;7.906;2022-09-29T03:22:19;2.70;99.90
20057;DHT22;10189;49.546;7.906;2022-09-29T03:24:45;2.70;99.90
20057;DHT22;10189;49.546;7.906;2022-09-29T03:27:10;2.70;99.90
20057;DHT22;10189;49.546;7.906;2022-09-29T03:29:36;2.70;99.90
20057;DHT22;10189;49.546;7.906;2022-09-29T03:32:03;2.60;99.90
20057;DHT22;10189;49.546;7.906;2022-09-29T03:34:33;2.60;99.90
20057;DHT22;10189;49.546;7.906;2022-09-29T03:36:59;2.70;99.90
20057;DHT22;10189;49.546;7.906;2022-09-29T03:39:26;2.60;99.90
20057;DHT22;10189;49.546;7.906;2022-09-29T03:41:52;2.60;99.90
20057;DHT22;10189;49.546;7.906;2022-09-29T03:44:19;2.60;99.90
20057;DHT22;10189;49.546;7.906;2022-09-29T03:46:45;2.60;99.90
20057;DHT22;10189;49.546;7.906;2022-09-29T03:49:12;2.60;99.90
20057;DHT22;10189;49.546;7.906;2022-09-29T03:51:42;2.50;99.90
20057;DHT22;10189;49.546;7.906;2022-09-29T03:54:09;2.50;99.90
20057;DHT22;10189;49.546;7.906;2022-09-29T03:56:36;2.60;99.90
20057;DHT22;10189;49.546;7.906;2022-09-29T03:59:03;2.60;99.90
20057;DHT22;10189;49.546;7.906;2022-09-29T04:01:33;2.50;99.90
20057;DHT22;10189;49.546;7.906;2022-09-29T04:04:00;2.50;99.90
20057;DHT22;10189;49.546;7.906;2022-09-29T04:06:26;2.40;99.90
20057;DHT22;10189;49.546;7.906;2022-09-29T04:08:52;2.40;99.90
20057;DHT22;10189;49.546;7.906;2022-09-29T04:11:17;2.30;99.90
20057;DHT22;10189;49.546;7.906;2022-09-29T04:13:43;2.30;99.90
20057;DHT22;10189;49.546;7.906;2022-09-29T04:16:09;2.30;99.90
20057;DHT22;10189;49.546;7.906;2022-09-29T04:18:35;2.30;99.90
20057;DHT22;10189;49.546;7.906;2022-09-29T04:21:08;2.30;99.90
20057;DHT22;10189;49.546;7.906;2022-09-29T04:23:34;2.40;99.90
20057;DHT22;10189;49.546;7.906;2022-09-29T04:26:01;2.40;99.90
20057;DHT22;10189;49.546;7.906;2022-09-29T04:28:27;2.40;99.90
20057;DHT22;10189;49.546;7.906;2022-09-29T04:30:56;2.30;99.90
20057;DHT22;10189;49.546;7.906;2022-09-29T04:33:22;2.40;99.90
20057;DHT22;10189;49.546;7.906;2022-09-29T04:35:48;2.40;99.90
20057;DHT22;10189;49.546;7.906;2022-09-29T04:38:14;2.40;99.90
20057;DHT22;10189;49.546;7.906;2022-09-29T04:40:39;2.40;99.90
20057;DHT22;10189;49.546;7.906;2022-09-29T04:43:06;2.40;99.90
20057;DHT22;10189;49.546;7.906;2022-09-29T04:45:32;2.40;99.90
20057;DHT22;10189;49.546;7.906;2022-09-29T04:47:58;2.40;99.90
20057;DHT22;10189;49.546;7.906;2022-09-29T04:50:23;2.40;99.90
20057;DHT22;10189;49.546;7.906;2022-09-29T04:52:49;2.40;99.90
20057;DHT22;10189;49.546;7.906;2022-09-29T04:55:16;2.30;99.90
20057;DHT22;10189;49.546;7.906;2022-09-29T04:57:42;2.30;99.90
20057;DHT22;10189;49.546;7.906;2022-09-29T05:00:09;2.30;99.90
20057;DHT22;10189;49.546;7.906;2022-09-29T05:02:36;2.40;99.90
20057;DHT22;10189;49.546;7.906;2022-09-29T05:05:03;2.40;99.90
20057;DHT22;10189;49.546;7.906;2022-09-29T05:07:33;2.40;99.90
20057;DHT22;10189;49.546;7.906;2022-09-29T05:09:59;2.40;99.90
20057;DHT22;10189;49.546;7.906;2022-09-29T05:12:26;2.40;99.90
20057;DHT22;10189;49.546;7.906;2022-09-29T05:14:52;2.40;99.90
20057;DHT22;10189;49.546;7.906;2022-09-29T05:17:18;2.40;99.90
20057;DHT22;10189;49.546;7.906;2022-09-29T05:19:43;2.40;99.90
20057;DHT22;10189;49.546;7.906;2022-09-29T05:22:10;2.50;99.90
20057;DHT22;10189;49.546;7.906;2022-09-29T05:24:35;2.50;99.90
20057;DHT22;10189;49.546;7.906;2022-09-29T05:27:01;2.50;99.90
20057;DHT22;10189;49.546;7.906;2022-09-29T05:29:27;2.50;99.90
20057;DHT22;10189;49.546;7.906;2022-09-29T05:31:53;2.50;99.90
20057;DHT22;10189;49.546;7.906;2022-09-29T05:34:19;2.60;99.90
20057;DHT22;10189;49.546;7.906;2022-09-29T05:36:46;2.60;99.90
20057;DHT22;10189;49.546;7.906;2022-09-29T05:39:12;2.60;99.90
20057;DHT22;10189;49.546;7.906;2022-09-29T05:41:38;2.80;99.90
20057;DHT22;10189;49.546;7.906;2022-09-29T05:44:05;2.80;99.90
20057;DHT22;10189;49.546;7.906;2022-09-29T05:46:31;2.90;99.90
20057;DHT22;10189;49.546;7.906;2022-09-29T05:48:57;3.00;99.90
20057;DHT22;10189;49.546;7.906;2022-09-29T05:51:24;3.10;99.90
20057;DHT22;10189;49.546;7.906;2022-09-29T05:53:53;3.20;99.90
20057;DHT22;10189;49.546;7.906;2022-09-29T05:56:22;3.30;99.90
20057;DHT22;10189;49.546;7.906;2022-09-29T05:58:50;3.40;99.90
20057;DHT22;10189;49.546;7.906;2022-09-29T06:01:19;3.60;99.90
20057;DHT22;10189;49.546;7.906;2022-09-29T06:03:46;3.70;99.90
20057;DHT22;10189;49.546;7.906;2022-09-29T06:06:27;3.90;99.90
20057;DHT22;10189;49.546;7.906;2022-09-29T06:08:54;4.00;99.90
20057;DHT22;10189;49.546;7.906;2022-09-29T06:11:24;4.20;99.90
20057;DHT22;10189;49.546;7.906;2022-09-29T06:13:53;4.30;99.90
20057;DHT22;10189;49.546;7.906;2022-09-29T06:16:22;4.50;99.90
20057;DHT22;10189;49.546;7.906;2022-09-29T06:18:49;4.80;99.90
20057;DHT22;10189;49.546;7.906;2022-09-29T06:21:24;5.10;99.90
20057;DHT22;10189;49.546;7.906;2022-09-29T06:23:53;5.30;99.90
20057;DHT22;10189;49.546;7.906;2022-09-29T06:26:20;5.40;99.90
20057;DHT22;10189;49.546;7.906;2022-09-29T06:28:47;5.30;99.90
20057;DHT22;10189;49.546;7.906;2022-09-29T06:31:15;5.30;99.90
20057;DHT22;10189;49.546;7.906;2022-09-29T06:33:43;5.50;99.90
20057;DHT22;10189;49.546;7.906;2022-09-29T06:39:05;5.70;99.90
20057;DHT22;10189;49.546;7.906;2022-09-29T06:41:33;5.70;99.90
20057;DHT22;10189;49.546;7.906;2022-09-29T06:44:00;5.80;99.90
20057;DHT22;10189;49.546;7.906;2022-09-29T06:46:26;5.80;99.90
20057;DHT22;10189;49.546;7.906;2022-09-29T06:48:55;5.80;99.90
20057;DHT22;10189;49.546;7.906;2022-09-29T06:51:22;5.80;99.90
20057;DHT22;10189;49.546;7.906;2022-09-29T06:53:50;5.80;99.90
20057;DHT22;10189;49.546;7.906;2022-09-29T06:56:17;5.80;99.90
20057;DHT22;10189;49.546;7.906;2022-09-29T06:58:46;5.80;99.90
20057;DHT22;10189;49.546;7.906;2022-09-29T07:01:12;5.80;99.90
20057;DHT22;10189;49.546;7.906;2022-09-29T07:03:39;5.90;99.90
20057;DHT22;10189;49.546;7.906;2022-09-29T07:06:07;5.90;99.90
20057;DHT22;10189;49.546;7.906;2022-09-29T07:08:35;5.90;99.90
20057;DHT22;10189;49.546;7.906;2022-09-29T07:11:07;6.00;99.90
20057;DHT22;10189;49.546;7.906;2022-09-29T07:13:34;6.00;99.90
20057;DHT22;10189;49.546;7.906;2022-09-29T07:16:05;6.10;99.90
20057;DHT22;10189;49.546;7.906;2022-09-29T07:18:34;6.10;99.90
20057;DHT22;10189;49.546;7.906;2022-09-29T07:21:09;6.20;99.90
20057;DHT22;10189;49.546;7.906;2022-09-29T07:23:38;6.40;99.90
20057;DHT22;10189;49.546;7.906;2022-09-29T07:26:05;6.60;99.90
20057;DHT22;10189;49.546;7.906;2022-09-29T07:28:31;6.70;99.90
20057;DHT22;10189;49.546;7.906;2022-09-29T07:31:03;6.80;99.90
20057;DHT22;10189;49.546;7.906;2022-09-29T07:33:31;6.90;99.90
20057;DHT22;10189;49.546;7.906;2022-09-29T07:35:57;6.90;99.80
20057;DHT22;10189;49.546;7.906;2022-09-29T07:38:29;7.00;99.50
20057;DHT22;10189;49.546;7.906;2022-09-29T07:41:02;7.00;99.50
20057;DHT22;10189;49.546;7.906;2022-09-29T07:43:30;7.10;99.10
20057;DHT22;10189;49.546;7.906;2022-09-29T07:45:57;7.20;98.40
20057;DHT22;10189;49.546;7.906;2022-09-29T07:48:25;7.40;98.00
20057;DHT22;10189;49.546;7.906;2022-09-29T07:50:52;7.50;97.60
20057;DHT22;10189;49.546;7.906;2022-09-29T07:53:24;7.70;97.80
20057;DHT22;10189;49.546;7.906;2022-09-29T07:55:50;7.90;97.20
20057;DHT22;10189;49.546;7.906;2022-09-29T07:58:15;8.00;94.60
20057;DHT22;10189;49.546;7.906;2022-09-29T08:00:41;8.10;93.60
20057;DHT22;10189;49.546;7.906;2022-09-29T08:03:08;8.10;93.00
20057;DHT22;10189;49.546;7.906;2022-09-29T08:05:34;8.30;93.20
20057;DHT22;10189;49.546;7.906;2022-09-29T08:08:04;8.50;93.50
20057;DHT22;10189;49.546;7.906;2022-09-29T08:10:31;8.70;92.00
20057;DHT22;10189;49.546;7.906;2022-09-29T08:12:58;8.90;92.00
20057;DHT22;10189;49.546;7.906;2022-09-29T08:15:24;9.10;89.50
20057;DHT22;10189;49.546;7.906;2022-09-29T08:17:54;9.20;87.90
20057;DHT22;10189;49.546;7.906;2022-09-29T08:20:23;9.30;85.60
20057;DHT22;10189;49.546;7.906;2022-09-29T08:22:51;9.40;85.70
20057;DHT22;10189;49.546;7.906;2022-09-29T08:25:18;9.60;85.80
20057;DHT22;10189;49.546;7.906;2022-09-29T08:27:47;9.80;85.40
20057;DHT22;10189;49.546;7.906;2022-09-29T08:30:13;9.90;84.80
20057;DHT22;10189;49.546;7.906;2022-09-29T08:32:39;9.90;84.20
20057;DHT22;10189;49.546;7.906;2022-09-29T08:35:05;10.00;82.00
20057;DHT22;10189;49.546;7.906;2022-09-29T08:37:31;10.10;82.40
20057;DHT22;10189;49.546;7.906;2022-09-29T08:39:57;10.00;83.50
20057;DHT22;10189;49.546;7.906;2022-09-29T08:45:34;10.10;84.00
20057;DHT22;10189;49.546;7.906;2022-09-29T08:48:12;10.40;80.00
20057;DHT22;10189;49.546;7.906;2022-09-29T08:50:48;10.50;79.00
20057;DHT22;10189;49.546;7.906;2022-09-29T08:53:21;10.50;78.80
20057;DHT22;10189;49.546;7.906;2022-09-29T08:56:01;10.60;80.20
20057;DHT22;10189;49.546;7.906;2022-09-29T08:58:33;10.60;80.20
20057;DHT22;10189;49.546;7.906;2022-09-29T09:07:16;10.40;81.10
20057;DHT22;10189;49.546;7.906;2022-09-29T09:15:34;10.70;79.60
20057;DHT22;10189;49.546;7.906;2022-09-29T09:21:08;11.20;76.50
20057;DHT22;10189;49.546;7.906;2022-09-29T09:24:05;11.30;78.60
20057;DHT22;10189;49.546;7.906;2022-09-29T09:26:45;11.60;76.50
20057;DHT22;10189;49.546;7.906;2022-09-29T09:29:42;11.70;74.40
20057;DHT22;10189;49.546;7.906;2022-09-29T09:32:16;11.60;75.70
20057;DHT22;10189;49.546;7.906;2022-09-29T09:34:51;11.80;76.10
20057;DHT22;10189;49.546;7.906;2022-09-29T09:37:38;11.90;74.10
20057;DHT22;10189;49.546;7.906;2022-09-29T09:40:22;12.00;73.50
20057;DHT22;10189;49.546;7.906;2022-09-29T09:43:28;12.30;74.10
20057;DHT22;10189;49.546;7.906;2022-09-29T09:46:35;12.60;74.00
20057;DHT22;10189;49.546;7.906;2022-09-29T09:49:31;12.90;71.90
20057;DHT22;10189;49.546;7.906;2022-09-29T09:55:12;12.50;73.00
20057;DHT22;10189;49.546;7.906;2022-09-29T10:01:04;12.00;71.80
20057;DHT22;10189;49.546;7.906;2022-09-29T10:03:37;11.80;73.30
20057;DHT22;10189;49.546;7.906;2022-09-29T10:06:06;11.80;73.30
20057;DHT22;10189;49.546;7.906;2022-09-29T10:08:35;11.70;72.20
20057;DHT22;10189;49.546;7.906;2022-09-29T10:11:28;11.80;73.60
20057;DHT22;10189;49.546;7.906;2022-09-29T10:14:34;12.00;72.10
20057;DHT22;10189;49.546;7.906;2022-09-29T10:17:06;12.00;72.90
20057;DHT22;10189;49.546;7.906;2022-09-29T10:20:06;12.20;72.00
20057;DHT22;10189;49.546;7.906;2022-09-29T10:22:34;12.50;69.40
20057;DHT22;10189;49.546;7.906;2022-09-29T10:27:48;12.80;68.70
20057;DHT22;10189;49.546;7.906;2022-09-29T10:30:41;13.10;69.20
20057;DHT22;10189;49.546;7.906;2022-09-29T10:33:14;13.30;64.90
20057;DHT22;10189;49.546;7.906;2022-09-29T10:35:44;13.40;66.60
20057;DHT22;10189;49.546;7.906;2022-09-29T10:38:23;13.40;64.50
20057;DHT22;10189;49.546;7.906;2022-09-29T10:41:01;13.50;61.80
20057;DHT22;10189;49.546;7.906;2022-09-29T10:43:38;13.60;62.60
20057;DHT22;10189;49.546;7.906;2022-09-29T10:49:17;13.70;62.20
20057;DHT22;10189;49.546;7.906;2022-09-29T10:52:24;14.00;62.90
20057;DHT22;10189;49.546;7.906;2022-09-29T10:55:00;14.30;59.80
20057;DHT22;10189;49.546;7.906;2022-09-29T10:57:33;14.60;59.80
20057;DHT22;10189;49.546;7.906;2022-09-29T11:00:00;14.80;60.30
20057;DHT22;10189;49.546;7.906;2022-09-29T11:02:34;14.80;60.50
20057;DHT22;10189;49.546;7.906;2022-09-29T11:05:15;14.10;61.00
20057;DHT22;10189;49.546;7.906;2022-09-29T11:07:46;14.00;63.10
20057;DHT22;10189;49.546;7.906;2022-09-29T11:10:34;13.90;62.30
20057;DHT22;10189;49.546;7.906;2022-09-29T11:16:05;14.20;64.40
20057;DHT22;10189;49.546;7.906;2022-09-29T11:18:41;14.40;60.30
20057;DHT22;10189;49.546;7.906;2022-09-29T11:21:34;14.70;60.60
20057;DHT22;10189;49.546;7.906;2022-09-29T11:30:06;15.00;59.30
20057;DHT22;10189;49.546;7.906;2022-09-29T11:43:55;14.50;57.50
20057;DHT22;10189;49.546;7.906;2022-09-29T11:50:29;13.90;61.40
20057;DHT22;10189;49.546;7.906;2022-09-29T11:53:17;13.80;61.20
20057;DHT22;10189;49.546;7.906;2022-09-29T11:56:22;14.10;62.00
20057;DHT22;10189;49.546;7.906;2022-09-29T11:59:13;14.40;61.90
20057;DHT22;10189;49.546;7.906;2022-09-29T12:02:07;14.30;61.80
20057;DHT22;10189;49.546;7.906;2022-09-29T12:10:28;14.70;59.50
20057;DHT22;10189;49.546;7.906;2022-09-29T12:13:40;14.90;59.40
20057;DHT22;10189;49.546;7.906;2022-09-29T12:16:28;14.80;57.50
20057;DHT22;10189;49.546;7.906;2022-09-29T12:19:10;14.60;61.00
20057;DHT22;10189;49.546;7.906;2022-09-29T12:21:49;14.60;59.80
20057;DHT22;10189;49.546;7.906;2022-09-29T12:24:20;14.30;60.90
20057;DHT22;10189;49.546;7.906;2022-09-29T12:27:18;14.30;60.70
20057;DHT22;10189;49.546;7.906;2022-09-29T12:30:04;14.20;60.20
20057;DHT22;10189;49.546;7.906;2022-09-29T12:32:51;13.90;60.90
20057;DHT22;10189;49.546;7.906;2022-09-29T12:38:38;13.60;62.10
20057;DHT22;10189;49.546;7.906;2022-09-29T12:41:15;13.60;63.30
20057;DHT22;10189;49.546;7.906;2022-09-29T12:46:48;13.50;63.80
20057;DHT22;10189;49.546;7.906;2022-09-29T12:49:42;13.50;65.60
20057;DHT22;10189;49.546;7.906;2022-09-29T12:52:25;13.30;63.90
20057;DHT22;10189;49.546;7.906;2022-09-29T12:55:02;12.90;62.90
20057;DHT22;10189;49.546;7.906;2022-09-29T12:57:36;12.50;64.50
20057;DHT22;10189;49.546;7.906;2022-09-29T13:00:13;12.00;64.20
20057;DHT22;10189;49.546;7.906;2022-09-29T13:11:56;11.00;68.00
20057;DHT22;10189;49.546;7.906;2022-09-29T13:14:54;10.80;68.60
20057;DHT22;10189;49.546;7.906;2022-09-29T13:23:04;10.70;71.40
20057;DHT22;10189;49.546;7.906;2022-09-29T13:28:57;10.90;73.10
20057;DHT22;10189;49.546;7.906;2022-09-29T13:31:28;11.00;72.40
20057;DHT22;10189;49.546;7.906;2022-09-29T13:33:59;11.00;70.90
20057;DHT22;10189;49.546;7.906;2022-09-29T13:36:33;10.90;71.80
20057;DHT22;10189;49.546;7.906;2022-09-29T13:39:23;10.90;72.30
20057;DHT22;10189;49.546;7.906;2022-09-29T13:41:54;11.00;71.80
20057;DHT22;10189;49.546;7.906;2022-09-29T13:44:24;11.10;72.40
20057;DHT22;10189;49.546;7.906;2022-09-29T13:46:53;11.30;71.20
20057;DHT22;10189;49.546;7.906;2022-09-29T13:52:27;11.40;70.90
20057;DHT22;10189;49.546;7.906;2022-09-29T13:54:38;11.40;70.10
20057;DHT22;10189;49.546;7.906;2022-09-29T13:59:43;11.40;70.10
20057;DHT22;10189;49.546;7.906;2022-09-29T14:05:39;11.70;71.00
20057;DHT22;10189;49.546;7.906;2022-09-29T14:08:15;11.70;69.00
20057;DHT22;10189;49.546;7.906;2022-09-29T14:10:52;11.70;70.20
20057;DHT22;10189;49.546;7.906;2022-09-29T14:17:18;11.80;70.50
20057;DHT22;10189;49.546;7.906;2022-09-29T14:23:04;11.60;71.40
20057;DHT22;10189;49.546;7.906;2022-09-29T14:28:13;11.30;70.60
20057;DHT22;10189;49.546;7.906;2022-09-29T14:30:50;11.20;69.60
20057;DHT22;10189;49.546;7.906;2022-09-29T14:33:35;11.20;69.90
20057;DHT22;10189;49.546;7.906;2022-09-29T14:36:13;11.20;69.40
20057;DHT22;10189;49.546;7.906;2022-09-29T14:38:49;11.20;69.60
20057;DHT22;10189;49.546;7.906;2022-09-29T14:41:30;11.20;69.90
20057;DHT22;10189;49.546;7.906;2022-09-29T14:44:06;11.20;69.80
20057;DHT22;10189;49.546;7.906;2022-09-29T14:50:13;11.00;71.10
20057;DHT22;10189;49.546;7.906;2022-09-29T14:53:14;11.00;71.70
20057;DHT22;10189;49.546;7.906;2022-09-29T15:02:06;10.70;71.30
20057;DHT22;10189;49.546;7.906;2022-09-29T15:04:38;10.60;70.90
20057;DHT22;10189;49.546;7.906;2022-09-29T15:07:08;10.30;71.00
20057;DHT22;10189;49.546;7.906;2022-09-29T15:09:37;10.10;71.40
20057;DHT22;10189;49.546;7.906;2022-09-29T15:12:20;9.90;72.50
20057;DHT22;10189;49.546;7.906;2022-09-29T15:14:47;9.80;73.20
20057;DHT22;10189;49.546;7.906;2022-09-29T15:17:40;9.80;73.90
20057;DHT22;10189;49.546;7.906;2022-09-29T15:20:59;9.60;74.10
20057;DHT22;10189;49.546;7.906;2022-09-29T15:26:42;9.60;75.90
20057;DHT22;10189;49.546;7.906;2022-09-29T15:29:14;9.50;75.50
20057;DHT22;10189;49.546;7.906;2022-09-29T15:31:44;9.40;75.10
20057;DHT22;10189;49.546;7.906;2022-09-29T15:34:19;9.40;76.40
20057;DHT22;10189;49.546;7.906;2022-09-29T15:36:51;9.50;77.40
20057;DHT22;10189;49.546;7.906;2022-09-29T15:42:02;9.50;77.80
20057;DHT22;10189;49.546;7.906;2022-09-29T15:44:36;9.50;79.40
20057;DHT22;10189;49.546;7.906;2022-09-29T15:47:02;9.50;80.60
20057;DHT22;10189;49.546;7.906;2022-09-29T15:49:28;9.40;81.60
20057;DHT22;10189;49.546;7.906;2022-09-29T15:54:28;9.40;82.60
20057;DHT22;10189;49.546;7.906;2022-09-29T15:56:59;9.40;82.60
20057;DHT22;10189;49.546;7.906;2022-09-29T15:59:50;9.40;82.70
20057;DHT22;10189;49.546;7.906;2022-09-29T16:02:28;9.40;82.60
20057;DHT22;10189;49.546;7.906;2022-09-29T16:05:06;9.40;82.90
20057;DHT22;10189;49.546;7.906;2022-09-29T16:07:47;9.30;83.40
20057;DHT22;10189;49.546;7.906;2022-09-29T16:11:01;9.30;83.60
20057;DHT22;10189;49.546;7.906;2022-09-29T16:13:32;9.30;83.70
20057;DHT22;10189;49.546;7.906;2022-09-29T16:16:03;9.30;82.90
20057;DHT22;10189;49.546;7.906;2022-09-29T16:18:44;9.30;83.20
20057;DHT22;10189;49.546;7.906;2022-09-29T16:21:13;9.20;83.40
20057;DHT22;10189;49.546;7.906;2022-09-29T16:26:43;9.00;85.80
20057;DHT22;10189;49.546;7.906;2022-09-29T16:35:40;8.90;88.40
20057;DHT22;10189;49.546;7.906;2022-09-29T16:40:49;8.90;89.60
20057;DHT22;10189;49.546;7.906;2022-09-29T16:43:28;9.00;90.20
20057;DHT22;10189;49.546;7.906;2022-09-29T16:45:58;9.00;90.50
20057;DHT22;10189;49.546;7.906;2022-09-29T16:48:29;9.10;90.80
20057;DHT22;10189;49.546;7.906;2022-09-29T16:51:05;9.20;90.80
20057;DHT22;10189;49.546;7.906;2022-09-29T16:53:34;9.10;89.50
20057;DHT22;10189;49.546;7.906;2022-09-29T16:56:07;9.20;89.20
20057;DHT22;10189;49.546;7.906;2022-09-29T16:58:35;9.20;88.90
20057;DHT22;10189;49.546;7.906;2022-09-29T17:01:02;9.20;88.80
20057;DHT22;10189;49.546;7.906;2022-09-29T17:03:28;9.10;89.80
20057;DHT22;10189;49.546;7.906;2022-09-29T17:05:56;9.10;89.70
20057;DHT22;10189;49.546;7.906;2022-09-29T17:08:24;9.00;89.40
20057;DHT22;10189;49.546;7.906;2022-09-29T17:10:54;8.90;89.90
20057;DHT22;10189;49.546;7.906;2022-09-29T17:13:22;8.80;90.50
20057;DHT22;10189;49.546;7.906;2022-09-29T17:15:52;8.70;90.90
20057;DHT22;10189;49.546;7.906;2022-09-29T17:18:19;8.60;90.90
20057;DHT22;10189;49.546;7.906;2022-09-29T17:20:46;8.50;91.00
20057;DHT22;10189;49.546;7.906;2022-09-29T17:23:12;8.40;90.30
20057;DHT22;10189;49.546;7.906;2022-09-29T17:25:44;8.30;90.40
20057;DHT22;10189;49.546;7.906;2022-09-29T17:28:17;8.20;91.00
20057;DHT22;10189;49.546;7.906;2022-09-29T17:30:49;8.10;91.30
20057;DHT22;10189;49.546;7.906;2022-09-29T17:33:17;8.00;91.80
20057;DHT22;10189;49.546;7.906;2022-09-29T17:35:49;7.90;91.80
20057;DHT22;10189;49.546;7.906;2022-09-29T17:38:17;7.80;92.40
20057;DHT22;10189;49.546;7.906;2022-09-29T17:41:00;7.70;92.80
20057;DHT22;10189;49.546;7.906;2022-09-29T17:43:28;7.60;93.40
20057;DHT22;10189;49.546;7.906;2022-09-29T17:45:56;7.50;93.60
20057;DHT22;10189;49.546;7.906;2022-09-29T17:48:28;7.50;93.30
20057;DHT22;10189;49.546;7.906;2022-09-29T17:50:54;7.40;93.70
20057;DHT22;10189;49.546;7.906;2022-09-29T17:53:23;7.40;93.90
20057;DHT22;10189;49.546;7.906;2022-09-29T17:55:51;7.30;94.00
20057;DHT22;10189;49.546;7.906;2022-09-29T17:58:21;7.20;94.10
20057;DHT22;10189;49.546;7.906;2022-09-29T18:00:49;7.00;94.30
20057;DHT22;10189;49.546;7.906;2022-09-29T18:03:19;6.90;94.70
20057;DHT22;10189;49.546;7.906;2022-09-29T18:05:47;6.90;94.80
20057;DHT22;10189;49.546;7.906;2022-09-29T18:08:21;6.70;95.10
20057;DHT22;10189;49.546;7.906;2022-09-29T18:10:51;6.60;95.30
20057;DHT22;10189;49.546;7.906;2022-09-29T18:13:24;6.40;95.60
20057;DHT22;10189;49.546;7.906;2022-09-29T18:15:53;6.30;95.80
20057;DHT22;10189;49.546;7.906;2022-09-29T18:18:21;6.20;96.20
20057;DHT22;10189;49.546;7.906;2022-09-29T18:20:48;6.10;96.60
20057;DHT22;10189;49.546;7.906;2022-09-29T18:23:16;5.90;96.90
20057;DHT22;10189;49.546;7.906;2022-09-29T18:25:44;5.90;97.20
20057;DHT22;10189;49.546;7.906;2022-09-29T18:28:13;5.70;97.40
20057;DHT22;10189;49.546;7.906;2022-09-29T18:30:41;5.70;98.00
20057;DHT22;10189;49.546;7.906;2022-09-29T18:33:12;5.60;98.20
20057;DHT22;10189;49.546;7.906;2022-09-29T18:35:44;5.50;98.70
20057;DHT22;10189;49.546;7.906;2022-09-29T18:38:11;5.40;99.20
20057;DHT22;10189;49.546;7.906;2022-09-29T18:40:38;5.30;99.60
20057;DHT22;10189;49.546;7.906;2022-09-29T18:43:05;5.20;99.90
20057;DHT22;10189;49.546;7.906;2022-09-29T18:45:34;5.20;99.90
20057;DHT22;10189;49.546;7.906;2022-09-29T18:48:05;5.10;99.90
20057;DHT22;10189;49.546;7.906;2022-09-29T18:50:36;5.00;99.90
20057;DHT22;10189;49.546;7.906;2022-09-29T18:53:09;4.90;99.90
20057;DHT22;10189;49.546;7.906;2022-09-29T18:55:36;4.90;99.90
20057;DHT22;10189;49.546;7.906;2022-09-29T18:58:03;4.80;99.90
20057;DHT22;10189;49.546;7.906;2022-09-29T19:00:33;4.70;99.90
20057;DHT22;10189;49.546;7.906;2022-09-29T19:03:04;4.70;99.90
20057;DHT22;10189;49.546;7.906;2022-09-29T19:05:32;4.60;99.90
20057;DHT22;10189;49.546;7.906;2022-09-29T19:08:03;4.50;99.90
20057;DHT22;10189;49.546;7.906;2022-09-29T19:10:31;4.50;99.90